sensor_id;sensor_type;location;lat;lon;timestamp;P1;durP1;ratioP1;P2;durP2;ratioP2
35150;SDS011;55720;51.972;4.624;2024-01-30T00:00:19;23.45;;;12.02;;
35150;SDS011;55720;51.972;4.624;2024-01-30T00:02:44;25.23;;;11.88;;
35150;SDS011;55720;51.972;4.624;2024-01-30T00:05:10;25.23;;;11.95;;
35150;SDS011;55720;51.972;4.624;2024-01-30T00:07:36;22.35;;;12.35;;
35150;SDS011;55720;51.972;4.624;2024-01-30T00:10:01;23.10;;;11.97;;
35150;SDS011;55720;51.972;4.624;2024-01-30T00:12:26;25.58;;;13.40;;
35150;SDS011;55720;51.972;4.624;2024-01-30T00:14:51;24.97;;;11.93;;
35150;SDS011;55720;51.972;4.624;2024-01-30T00:17:16;22.67;;;12.33;;
35150;SDS011;55720;51.972;4.624;2024-01-30T00:19:42;20.42;;;12.30;;
35150;SDS011;55720;51.972;4.624;2024-01-30T00:22:07;22.03;;;11.90;;
35150;SDS011;55720;51.972;4.624;2024-01-30T00:24:32;19.65;;;11.43;;
35150;SDS011;55720;51.972;4.624;2024-01-30T00:26:58;22.43;;;11.80;;
35150;SDS011;55720;51.972;4.624;2024-01-30T00:29:23;24.13;;;11.50;;
35150;SDS011;55720;51.972;4.624;2024-01-30T00:31:50;22.55;;;11.63;;
35150;SDS011;55720;51.972;4.624;2024-01-30T00:34:15;20.70;;;11.23;;
35150;SDS011;55720;51.972;4.624;2024-01-30T00:36:41;25.38;;;11.63;;
35150;SDS011;55720;51.972;4.624;2024-01-30T00:39:06;23.92;;;10.93;;
35150;SDS011;55720;51.972;4.624;2024-01-30T00:41:33;17.80;;;10.85;;
35150;SDS011;55720;51.972;4.624;2024-01-30T00:43:59;18.55;;;10.77;;
35150;SDS011;55720;51.972;4.624;2024-01-30T00:46:24;21.73;;;11.60;;
35150;SDS011;55720;51.972;4.624;2024-01-30T00:48:50;19.55;;;10.60;;
35150;SDS011;55720;51.972;4.624;2024-01-30T00:51:15;21.17;;;11.27;;
35150;SDS011;55720;51.972;4.624;2024-01-30T00:53:40;23.13;;;11.43;;
35150;SDS011;55720;51.972;4.624;2024-01-30T00:56:06;21.35;;;11.27;;
35150;SDS011;55720;51.972;4.624;2024-01-30T00:58:32;21.90;;;11.43;;
35150;SDS011;55720;51.972;4.624;2024-01-30T01:00:57;21.73;;;11.10;;
35150;SDS011;55720;51.972;4.624;2024-01-30T01:03:22;19.67;;;10.30;;
35150;SDS011;55720;51.972;4.624;2024-01-30T01:05:47;17.70;;;10.43;;
35150;SDS011;55720;51.972;4.624;2024-01-30T01:08:13;18.67;;;11.15;;
35150;SDS011;55720;51.972;4.624;2024-01-30T01:10:40;19.73;;;10.68;;
35150;SDS011;55720;51.972;4.624;2024-01-30T01:13:05;18.00;;;10.27;;
35150;SDS011;55720;51.972;4.624;2024-01-30T01:15:30;19.98;;;10.70;;
35150;SDS011;55720;51.972;4.624;2024-01-30T01:17:55;17.67;;;10.50;;
35150;SDS011;55720;51.972;4.624;2024-01-30T01:20:21;19.58;;;9.93;;
35150;SDS011;55720;51.972;4.624;2024-01-30T01:22:46;19.08;;;9.80;;
35150;SDS011;55720;51.972;4.624;2024-01-30T01:25:11;16.85;;;10.05;;
35150;SDS011;55720;51.972;4.624;2024-01-30T01:27:36;18.00;;;9.77;;
35150;SDS011;55720;51.972;4.624;2024-01-30T01:30:07;17.90;;;10.45;;
35150;SDS011;55720;51.972;4.624;2024-01-30T01:32:34;17.30;;;10.35;;
35150;SDS011;55720;51.972;4.624;2024-01-30T01:34:59;20.23;;;11.20;;
35150;SDS011;55720;51.972;4.624;2024-01-30T01:37:24;17.77;;;10.23;;
35150;SDS011;55720;51.972;4.624;2024-01-30T01:39:51;18.30;;;11.15;;
35150;SDS011;55720;51.972;4.624;2024-01-30T01:42:17;17.80;;;10.02;;
35150;SDS011;55720;51.972;4.624;2024-01-30T01:44:42;18.70;;;9.90;;
35150;SDS011;55720;51.972;4.624;2024-01-30T01:47:07;19.88;;;10.73;;
35150;SDS011;55720;51.972;4.624;2024-01-30T01:49:32;19.20;;;10.47;;
35150;SDS011;55720;51.972;4.624;2024-01-30T01:51:57;17.70;;;10.47;;
35150;SDS011;55720;51.972;4.624;2024-01-30T01:54:23;21.70;;;10.82;;
35150;SDS011;55720;51.972;4.624;2024-01-30T01:56:49;19.35;;;10.30;;
35150;SDS011;55720;51.972;4.624;2024-01-30T01:59:14;20.38;;;10.23;;
35150;SDS011;55720;51.972;4.624;2024-01-30T02:01:40;17.23;;;10.25;;
35150;SDS011;55720;51.972;4.624;2024-01-30T02:04:08;13.57;;;9.65;;
35150;SDS011;55720;51.972;4.624;2024-01-30T02:06:34;15.85;;;9.80;;
35150;SDS011;55720;51.972;4.624;2024-01-30T02:08:59;18.00;;;10.27;;
35150;SDS011;55720;51.972;4.624;2024-01-30T02:11:24;13.57;;;9.10;;
35150;SDS011;55720;51.972;4.624;2024-01-30T02:13:50;15.98;;;9.43;;
35150;SDS011;55720;51.972;4.624;2024-01-30T02:16:15;16.58;;;10.02;;
35150;SDS011;55720;51.972;4.624;2024-01-30T02:18:42;17.63;;;10.13;;
35150;SDS011;55720;51.972;4.624;2024-01-30T02:21:10;19.48;;;9.73;;
35150;SDS011;55720;51.972;4.624;2024-01-30T02:23:35;15.40;;;9.82;;
35150;SDS011;55720;51.972;4.624;2024-01-30T02:26:01;19.98;;;9.60;;
35150;SDS011;55720;51.972;4.624;2024-01-30T02:28:26;16.40;;;10.15;;
35150;SDS011;55720;51.972;4.624;2024-01-30T02:30:52;19.75;;;9.68;;
35150;SDS011;55720;51.972;4.624;2024-01-30T02:33:17;15.07;;;9.35;;
35150;SDS011;55720;51.972;4.624;2024-01-30T02:35:42;18.20;;;9.75;;
35150;SDS011;55720;51.972;4.624;2024-01-30T02:38:08;19.20;;;9.03;;
35150;SDS011;55720;51.972;4.624;2024-01-30T02:40:33;17.50;;;9.52;;
35150;SDS011;55720;51.972;4.624;2024-01-30T02:42:59;16.83;;;9.57;;
35150;SDS011;55720;51.972;4.624;2024-01-30T02:45:24;17.73;;;9.98;;
35150;SDS011;55720;51.972;4.624;2024-01-30T02:47:50;19.23;;;9.13;;
35150;SDS011;55720;51.972;4.624;2024-01-30T02:50:15;19.67;;;9.68;;
35150;SDS011;55720;51.972;4.624;2024-01-30T02:52:41;18.20;;;9.25;;
35150;SDS011;55720;51.972;4.624;2024-01-30T02:55:08;13.43;;;8.93;;
35150;SDS011;55720;51.972;4.624;2024-01-30T02:57:34;16.60;;;9.10;;
35150;SDS011;55720;51.972;4.624;2024-01-30T02:59:59;18.33;;;10.25;;
35150;SDS011;55720;51.972;4.624;2024-01-30T03:02:24;15.43;;;8.40;;
35150;SDS011;55720;51.972;4.624;2024-01-30T03:04:49;14.15;;;8.90;;
35150;SDS011;55720;51.972;4.624;2024-01-30T03:07:14;14.82;;;8.93;;
35150;SDS011;55720;51.972;4.624;2024-01-30T03:09:41;15.80;;;8.68;;
35150;SDS011;55720;51.972;4.624;2024-01-30T03:12:06;15.00;;;9.63;;
35150;SDS011;55720;51.972;4.624;2024-01-30T03:14:31;13.25;;;9.18;;
35150;SDS011;55720;51.972;4.624;2024-01-30T03:16:57;17.43;;;9.57;;
35150;SDS011;55720;51.972;4.624;2024-01-30T03:19:22;15.20;;;9.55;;
35150;SDS011;55720;51.972;4.624;2024-01-30T03:21:47;15.15;;;9.88;;
35150;SDS011;55720;51.972;4.624;2024-01-30T03:24:13;19.93;;;9.47;;
35150;SDS011;55720;51.972;4.624;2024-01-30T03:26:38;16.13;;;9.57;;
35150;SDS011;55720;51.972;4.624;2024-01-30T03:29:03;18.17;;;9.57;;
35150;SDS011;55720;51.972;4.624;2024-01-30T03:31:28;17.95;;;8.98;;
35150;SDS011;55720;51.972;4.624;2024-01-30T03:33:53;13.30;;;8.07;;
35150;SDS011;55720;51.972;4.624;2024-01-30T03:36:19;17.17;;;8.43;;
35150;SDS011;55720;51.972;4.624;2024-01-30T03:38:44;13.52;;;9.23;;
35150;SDS011;55720;51.972;4.624;2024-01-30T03:41:10;16.77;;;9.53;;
35150;SDS011;55720;51.972;4.624;2024-01-30T03:43:35;17.52;;;9.27;;
35150;SDS011;55720;51.972;4.624;2024-01-30T03:46:01;13.38;;;8.15;;
35150;SDS011;55720;51.972;4.624;2024-01-30T03:48:27;15.65;;;8.75;;
35150;SDS011;55720;51.972;4.624;2024-01-30T03:50:52;17.77;;;9.23;;
35150;SDS011;55720;51.972;4.624;2024-01-30T03:53:17;19.98;;;9.07;;
35150;SDS011;55720;51.972;4.624;2024-01-30T03:55:42;19.02;;;10.10;;
35150;SDS011;55720;51.972;4.624;2024-01-30T03:58:08;18.63;;;9.18;;
35150;SDS011;55720;51.972;4.624;2024-01-30T04:00:33;15.70;;;8.70;;
35150;SDS011;55720;51.972;4.624;2024-01-30T04:02:58;18.07;;;9.10;;
35150;SDS011;55720;51.972;4.624;2024-01-30T04:05:23;15.20;;;9.02;;
35150;SDS011;55720;51.972;4.624;2024-01-30T04:07:48;13.77;;;9.30;;
35150;SDS011;55720;51.972;4.624;2024-01-30T04:10:14;13.90;;;8.57;;
35150;SDS011;55720;51.972;4.624;2024-01-30T04:12:39;12.50;;;8.80;;
35150;SDS011;55720;51.972;4.624;2024-01-30T04:15:04;14.00;;;8.07;;
35150;SDS011;55720;51.972;4.624;2024-01-30T04:17:29;12.52;;;8.55;;
35150;SDS011;55720;51.972;4.624;2024-01-30T04:19:55;14.50;;;8.50;;
35150;SDS011;55720;51.972;4.624;2024-01-30T04:22:20;12.90;;;8.93;;
35150;SDS011;55720;51.972;4.624;2024-01-30T04:24:45;13.65;;;8.38;;
35150;SDS011;55720;51.972;4.624;2024-01-30T04:27:10;11.47;;;7.77;;
35150;SDS011;55720;51.972;4.624;2024-01-30T04:29:36;16.10;;;9.55;;
35150;SDS011;55720;51.972;4.624;2024-01-30T04:32:01;14.38;;;8.77;;
35150;SDS011;55720;51.972;4.624;2024-01-30T04:34:26;21.37;;;9.77;;
35150;SDS011;55720;51.972;4.624;2024-01-30T04:36:51;15.30;;;8.80;;
35150;SDS011;55720;51.972;4.624;2024-01-30T04:39:17;14.63;;;8.97;;
35150;SDS011;55720;51.972;4.624;2024-01-30T04:41:42;11.70;;;8.88;;
35150;SDS011;55720;51.972;4.624;2024-01-30T04:44:07;15.63;;;8.98;;
35150;SDS011;55720;51.972;4.624;2024-01-30T04:46:32;11.80;;;8.23;;
35150;SDS011;55720;51.972;4.624;2024-01-30T04:48:59;14.48;;;9.07;;
35150;SDS011;55720;51.972;4.624;2024-01-30T04:51:24;15.67;;;8.70;;
35150;SDS011;55720;51.972;4.624;2024-01-30T04:53:49;10.73;;;8.50;;
35150;SDS011;55720;51.972;4.624;2024-01-30T04:56:15;13.25;;;9.02;;
35150;SDS011;55720;51.972;4.624;2024-01-30T04:58:40;15.90;;;8.67;;
35150;SDS011;55720;51.972;4.624;2024-01-30T05:01:05;12.40;;;8.50;;
35150;SDS011;55720;51.972;4.624;2024-01-30T05:03:33;13.50;;;8.63;;
35150;SDS011;55720;51.972;4.624;2024-01-30T05:05:58;15.02;;;8.90;;
35150;SDS011;55720;51.972;4.624;2024-01-30T05:08:23;12.60;;;8.30;;
35150;SDS011;55720;51.972;4.624;2024-01-30T05:10:49;15.20;;;9.13;;
35150;SDS011;55720;51.972;4.624;2024-01-30T05:13:14;14.20;;;8.60;;
35150;SDS011;55720;51.972;4.624;2024-01-30T05:15:39;16.13;;;8.93;;
35150;SDS011;55720;51.972;4.624;2024-01-30T05:18:04;14.10;;;9.13;;
35150;SDS011;55720;51.972;4.624;2024-01-30T05:20:30;14.77;;;9.10;;
35150;SDS011;55720;51.972;4.624;2024-01-30T05:22:55;17.45;;;9.15;;
35150;SDS011;55720;51.972;4.624;2024-01-30T05:25:20;15.60;;;8.75;;
35150;SDS011;55720;51.972;4.624;2024-01-30T05:27:45;17.02;;;8.75;;
35150;SDS011;55720;51.972;4.624;2024-01-30T05:30:11;14.60;;;8.48;;
35150;SDS011;55720;51.972;4.624;2024-01-30T05:32:36;13.52;;;9.23;;
35150;SDS011;55720;51.972;4.624;2024-01-30T05:35:01;16.10;;;9.25;;
35150;SDS011;55720;51.972;4.624;2024-01-30T05:37:27;17.33;;;9.32;;
35150;SDS011;55720;51.972;4.624;2024-01-30T05:39:52;16.23;;;8.93;;
35150;SDS011;55720;51.972;4.624;2024-01-30T05:42:17;16.52;;;8.45;;
35150;SDS011;55720;51.972;4.624;2024-01-30T05:44:42;16.85;;;9.48;;
35150;SDS011;55720;51.972;4.624;2024-01-30T05:47:08;12.10;;;8.50;;
35150;SDS011;55720;51.972;4.624;2024-01-30T05:49:33;12.25;;;8.15;;
35150;SDS011;55720;51.972;4.624;2024-01-30T05:51:58;12.95;;;8.77;;
35150;SDS011;55720;51.972;4.624;2024-01-30T05:54:23;12.48;;;8.63;;
35150;SDS011;55720;51.972;4.624;2024-01-30T05:56:49;17.52;;;8.73;;
35150;SDS011;55720;51.972;4.624;2024-01-30T05:59:14;17.80;;;8.93;;
35150;SDS011;55720;51.972;4.624;2024-01-30T06:01:45;15.20;;;8.57;;
35150;SDS011;55720;51.972;4.624;2024-01-30T06:04:10;15.82;;;9.00;;
35150;SDS011;55720;51.972;4.624;2024-01-30T06:06:35;17.60;;;8.90;;
35150;SDS011;55720;51.972;4.624;2024-01-30T06:09:01;16.03;;;8.83;;
35150;SDS011;55720;51.972;4.624;2024-01-30T06:11:26;11.23;;;8.50;;
35150;SDS011;55720;51.972;4.624;2024-01-30T06:13:51;17.33;;;8.30;;
35150;SDS011;55720;51.972;4.624;2024-01-30T06:16:17;18.93;;;8.90;;
35150;SDS011;55720;51.972;4.624;2024-01-30T06:18:42;12.85;;;8.63;;
35150;SDS011;55720;51.972;4.624;2024-01-30T06:21:07;14.85;;;8.35;;
35150;SDS011;55720;51.972;4.624;2024-01-30T06:23:32;14.15;;;9.32;;
35150;SDS011;55720;51.972;4.624;2024-01-30T06:25:58;14.93;;;8.23;;
35150;SDS011;55720;51.972;4.624;2024-01-30T06:28:23;12.37;;;8.53;;
35150;SDS011;55720;51.972;4.624;2024-01-30T06:30:48;17.97;;;8.77;;
35150;SDS011;55720;51.972;4.624;2024-01-30T06:33:13;13.23;;;8.53;;
35150;SDS011;55720;51.972;4.624;2024-01-30T06:35:38;10.55;;;7.53;;
35150;SDS011;55720;51.972;4.624;2024-01-30T06:38:05;14.95;;;8.23;;
35150;SDS011;55720;51.972;4.624;2024-01-30T06:40:30;16.50;;;8.57;;
35150;SDS011;55720;51.972;4.624;2024-01-30T06:42:55;15.93;;;8.07;;
35150;SDS011;55720;51.972;4.624;2024-01-30T06:45:21;16.77;;;9.07;;
35150;SDS011;55720;51.972;4.624;2024-01-30T06:47:46;18.13;;;8.73;;
35150;SDS011;55720;51.972;4.624;2024-01-30T06:50:11;14.48;;;8.00;;
35150;SDS011;55720;51.972;4.624;2024-01-30T06:52:36;15.77;;;9.18;;
35150;SDS011;55720;51.972;4.624;2024-01-30T06:55:02;14.32;;;8.55;;
35150;SDS011;55720;51.972;4.624;2024-01-30T06:57:28;14.45;;;8.90;;
35150;SDS011;55720;51.972;4.624;2024-01-30T06:59:57;13.68;;;8.55;;
35150;SDS011;55720;51.972;4.624;2024-01-30T07:02:22;12.50;;;8.55;;
35150;SDS011;55720;51.972;4.624;2024-01-30T07:04:47;12.27;;;7.90;;
35150;SDS011;55720;51.972;4.624;2024-01-30T07:07:14;18.98;;;8.55;;
35150;SDS011;55720;51.972;4.624;2024-01-30T07:09:39;11.77;;;8.30;;
35150;SDS011;55720;51.972;4.624;2024-01-30T07:12:06;15.77;;;8.13;;
35150;SDS011;55720;51.972;4.624;2024-01-30T07:14:31;14.40;;;8.70;;
35150;SDS011;55720;51.972;4.624;2024-01-30T07:16:56;14.27;;;7.82;;
35150;SDS011;55720;51.972;4.624;2024-01-30T07:19:21;16.40;;;8.13;;
35150;SDS011;55720;51.972;4.624;2024-01-30T07:21:47;12.50;;;7.40;;
35150;SDS011;55720;51.972;4.624;2024-01-30T07:24:12;17.60;;;8.05;;
35150;SDS011;55720;51.972;4.624;2024-01-30T07:26:37;16.73;;;7.65;;
35150;SDS011;55720;51.972;4.624;2024-01-30T07:29:03;13.68;;;8.00;;
35150;SDS011;55720;51.972;4.624;2024-01-30T07:31:28;12.40;;;8.00;;
35150;SDS011;55720;51.972;4.624;2024-01-30T07:33:54;12.27;;;7.97;;
35150;SDS011;55720;51.972;4.624;2024-01-30T07:36:19;14.55;;;8.10;;
35150;SDS011;55720;51.972;4.624;2024-01-30T07:38:45;12.55;;;7.95;;
35150;SDS011;55720;51.972;4.624;2024-01-30T07:41:10;17.35;;;7.40;;
35150;SDS011;55720;51.972;4.624;2024-01-30T07:43:35;15.10;;;7.60;;
35150;SDS011;55720;51.972;4.624;2024-01-30T07:46:01;13.90;;;8.10;;
35150;SDS011;55720;51.972;4.624;2024-01-30T07:48:27;13.13;;;7.88;;
35150;SDS011;55720;51.972;4.624;2024-01-30T07:50:52;14.05;;;7.75;;
35150;SDS011;55720;51.972;4.624;2024-01-30T07:53:18;14.35;;;8.07;;
35150;SDS011;55720;51.972;4.624;2024-01-30T07:55:43;10.65;;;6.43;;
35150;SDS011;55720;51.972;4.624;2024-01-30T07:58:12;15.27;;;6.78;;
35150;SDS011;55720;51.972;4.624;2024-01-30T08:00:37;14.05;;;7.28;;
35150;SDS011;55720;51.972;4.624;2024-01-30T08:03:02;13.90;;;7.18;;
35150;SDS011;55720;51.972;4.624;2024-01-30T08:05:28;18.05;;;7.35;;
35150;SDS011;55720;51.972;4.624;2024-01-30T08:07:53;18.17;;;7.70;;
35150;SDS011;55720;51.972;4.624;2024-01-30T08:10:18;15.00;;;7.30;;
35150;SDS011;55720;51.972;4.624;2024-01-30T08:12:43;13.77;;;7.03;;
35150;SDS011;55720;51.972;4.624;2024-01-30T08:15:09;13.10;;;7.30;;
35150;SDS011;55720;51.972;4.624;2024-01-30T08:17:34;14.98;;;7.03;;
35150;SDS011;55720;51.972;4.624;2024-01-30T08:19:59;11.33;;;6.87;;
35150;SDS011;55720;51.972;4.624;2024-01-30T08:22:25;12.73;;;6.95;;
35150;SDS011;55720;51.972;4.624;2024-01-30T08:24:50;12.85;;;6.22;;
35150;SDS011;55720;51.972;4.624;2024-01-30T08:27:15;13.82;;;6.47;;
35150;SDS011;55720;51.972;4.624;2024-01-30T08:29:41;20.33;;;7.53;;
35150;SDS011;55720;51.972;4.624;2024-01-30T08:32:06;14.63;;;7.17;;
35150;SDS011;55720;51.972;4.624;2024-01-30T08:34:32;13.90;;;7.15;;
35150;SDS011;55720;51.972;4.624;2024-01-30T08:36:57;14.85;;;7.60;;
35150;SDS011;55720;51.972;4.624;2024-01-30T08:39:22;14.73;;;6.97;;
35150;SDS011;55720;51.972;4.624;2024-01-30T08:41:47;11.98;;;6.85;;
35150;SDS011;55720;51.972;4.624;2024-01-30T08:44:13;13.17;;;6.60;;
35150;SDS011;55720;51.972;4.624;2024-01-30T08:46:38;9.83;;;6.60;;
35150;SDS011;55720;51.972;4.624;2024-01-30T08:49:03;14.10;;;6.55;;
35150;SDS011;55720;51.972;4.624;2024-01-30T08:51:29;12.23;;;7.22;;
35150;SDS011;55720;51.972;4.624;2024-01-30T08:53:55;11.60;;;6.45;;
35150;SDS011;55720;51.972;4.624;2024-01-30T08:56:20;16.05;;;6.60;;
35150;SDS011;55720;51.972;4.624;2024-01-30T08:58:45;12.75;;;6.70;;
35150;SDS011;55720;51.972;4.624;2024-01-30T09:01:10;16.03;;;6.83;;
35150;SDS011;55720;51.972;4.624;2024-01-30T09:03:35;10.93;;;7.30;;
35150;SDS011;55720;51.972;4.624;2024-01-30T09:06:07;12.32;;;6.20;;
35150;SDS011;55720;51.972;4.624;2024-01-30T09:08:32;10.98;;;6.53;;
35150;SDS011;55720;51.972;4.624;2024-01-30T09:10:58;13.30;;;7.18;;
35150;SDS011;55720;51.972;4.624;2024-01-30T09:13:23;14.57;;;7.50;;
35150;SDS011;55720;51.972;4.624;2024-01-30T09:15:48;10.50;;;6.63;;
35150;SDS011;55720;51.972;4.624;2024-01-30T09:18:13;15.00;;;6.17;;
35150;SDS011;55720;51.972;4.624;2024-01-30T09:20:38;9.40;;;6.47;;
35150;SDS011;55720;51.972;4.624;2024-01-30T09:23:04;12.13;;;6.83;;
35150;SDS011;55720;51.972;4.624;2024-01-30T09:25:29;13.90;;;7.10;;
35150;SDS011;55720;51.972;4.624;2024-01-30T09:27:54;9.10;;;6.03;;
35150;SDS011;55720;51.972;4.624;2024-01-30T09:30:19;13.60;;;7.10;;
35150;SDS011;55720;51.972;4.624;2024-01-30T09:32:45;10.55;;;6.95;;
35150;SDS011;55720;51.972;4.624;2024-01-30T09:35:10;7.60;;;6.15;;
35150;SDS011;55720;51.972;4.624;2024-01-30T09:37:35;10.55;;;6.95;;
35150;SDS011;55720;51.972;4.624;2024-01-30T09:40:00;12.10;;;7.23;;
35150;SDS011;55720;51.972;4.624;2024-01-30T09:42:35;13.98;;;6.63;;
35150;SDS011;55720;51.972;4.624;2024-01-30T09:45:01;12.95;;;6.55;;
35150;SDS011;55720;51.972;4.624;2024-01-30T09:47:26;21.73;;;7.20;;
35150;SDS011;55720;51.972;4.624;2024-01-30T09:49:51;12.53;;;6.70;;
35150;SDS011;55720;51.972;4.624;2024-01-30T09:52:17;15.75;;;7.32;;
35150;SDS011;55720;51.972;4.624;2024-01-30T09:54:43;10.13;;;5.93;;
35150;SDS011;55720;51.972;4.624;2024-01-30T09:57:10;9.52;;;6.00;;
35150;SDS011;55720;51.972;4.624;2024-01-30T09:59:36;7.82;;;5.72;;
35150;SDS011;55720;51.972;4.624;2024-01-30T10:02:01;11.48;;;5.95;;
35150;SDS011;55720;51.972;4.624;2024-01-30T10:04:29;12.38;;;4.65;;
35150;SDS011;55720;51.972;4.624;2024-01-30T10:06:54;10.40;;;4.50;;
35150;SDS011;55720;51.972;4.624;2024-01-30T10:09:19;5.90;;;3.17;;
35150;SDS011;55720;51.972;4.624;2024-01-30T10:11:44;7.13;;;3.37;;
35150;SDS011;55720;51.972;4.624;2024-01-30T10:14:09;7.77;;;3.50;;
35150;SDS011;55720;51.972;4.624;2024-01-30T10:16:35;12.43;;;3.97;;
35150;SDS011;55720;51.972;4.624;2024-01-30T10:19:00;10.70;;;3.80;;
35150;SDS011;55720;51.972;4.624;2024-01-30T10:21:25;9.20;;;3.13;;
35150;SDS011;55720;51.972;4.624;2024-01-30T10:23:50;12.88;;;4.40;;
35150;SDS011;55720;51.972;4.624;2024-01-30T10:26:16;11.05;;;4.00;;
35150;SDS011;55720;51.972;4.624;2024-01-30T10:28:42;9.93;;;3.00;;
35150;SDS011;55720;51.972;4.624;2024-01-30T10:31:07;7.90;;;2.58;;
35150;SDS011;55720;51.972;4.624;2024-01-30T10:33:33;7.50;;;1.35;;
35150;SDS011;55720;51.972;4.624;2024-01-30T10:36:02;4.77;;;1.50;;
35150;SDS011;55720;51.972;4.624;2024-01-30T10:38:30;4.78;;;1.38;;
35150;SDS011;55720;51.972;4.624;2024-01-30T10:40:56;7.22;;;1.80;;
35150;SDS011;55720;51.972;4.624;2024-01-30T10:43:22;6.38;;;1.98;;
35150;SDS011;55720;51.972;4.624;2024-01-30T10:45:48;4.85;;;1.73;;
35150;SDS011;55720;51.972;4.624;2024-01-30T10:48:14;7.43;;;2.50;;
35150;SDS011;55720;51.972;4.624;2024-01-30T10:50:41;4.60;;;2.17;;
35150;SDS011;55720;51.972;4.624;2024-01-30T10:53:07;5.28;;;2.38;;
35150;SDS011;55720;51.972;4.624;2024-01-30T10:55:33;2.63;;;2.35;;
35150;SDS011;55720;51.972;4.624;2024-01-30T10:57:59;3.33;;;2.47;;
35150;SDS011;55720;51.972;4.624;2024-01-30T11:00:25;4.43;;;2.22;;
35150;SDS011;55720;51.972;4.624;2024-01-30T11:02:51;4.53;;;1.95;;
35150;SDS011;55720;51.972;4.624;2024-01-30T11:05:23;6.30;;;2.42;;
35150;SDS011;55720;51.972;4.624;2024-01-30T11:07:49;3.72;;;1.77;;
35150;SDS011;55720;51.972;4.624;2024-01-30T11:10:14;4.63;;;1.40;;
35150;SDS011;55720;51.972;4.624;2024-01-30T11:12:40;7.88;;;1.45;;
35150;SDS011;55720;51.972;4.624;2024-01-30T11:15:10;2.75;;;1.05;;
35150;SDS011;55720;51.972;4.624;2024-01-30T11:20:09;5.47;;;0.88;;
35150;SDS011;55720;51.972;4.624;2024-01-30T11:22:34;4.93;;;1.02;;
35150;SDS011;55720;51.972;4.624;2024-01-30T11:25:01;6.40;;;1.40;;
35150;SDS011;55720;51.972;4.624;2024-01-30T11:27:28;7.32;;;0.85;;
35150;SDS011;55720;51.972;4.624;2024-01-30T11:29:53;5.30;;;0.50;;
35150;SDS011;55720;51.972;4.624;2024-01-30T11:32:22;6.60;;;1.00;;
35150;SDS011;55720;51.972;4.624;2024-01-30T11:34:48;8.52;;;1.08;;
35150;SDS011;55720;51.972;4.624;2024-01-30T11:37:14;6.53;;;1.05;;
35150;SDS011;55720;51.972;4.624;2024-01-30T11:39:40;4.60;;;0.80;;
35150;SDS011;55720;51.972;4.624;2024-01-30T11:42:07;7.53;;;1.15;;
35150;SDS011;55720;51.972;4.624;2024-01-30T11:44:33;5.50;;;0.95;;
35150;SDS011;55720;51.972;4.624;2024-01-30T11:46:59;6.23;;;1.03;;
35150;SDS011;55720;51.972;4.624;2024-01-30T11:49:24;3.97;;;0.60;;
35150;SDS011;55720;51.972;4.624;2024-01-30T11:51:49;7.13;;;1.05;;
35150;SDS011;55720;51.972;4.624;2024-01-30T11:54:15;4.78;;;0.90;;
35150;SDS011;55720;51.972;4.624;2024-01-30T11:56:40;1.58;;;0.50;;
35150;SDS011;55720;51.972;4.624;2024-01-30T11:59:06;4.95;;;0.77;;
35150;SDS011;55720;51.972;4.624;2024-01-30T12:01:31;2.15;;;0.50;;
35150;SDS011;55720;51.972;4.624;2024-01-30T12:03:58;3.55;;;0.73;;
35150;SDS011;55720;51.972;4.624;2024-01-30T12:06:23;3.53;;;1.00;;
35150;SDS011;55720;51.972;4.624;2024-01-30T12:08:58;4.88;;;0.77;;
35150;SDS011;55720;51.972;4.624;2024-01-30T12:11:24;1.98;;;0.57;;
35150;SDS011;55720;51.972;4.624;2024-01-30T12:13:49;2.70;;;0.55;;
35150;SDS011;55720;51.972;4.624;2024-01-30T12:16:15;4.13;;;1.02;;
35150;SDS011;55720;51.972;4.624;2024-01-30T12:18:41;3.30;;;0.65;;
35150;SDS011;55720;51.972;4.624;2024-01-30T12:21:06;3.72;;;0.63;;
35150;SDS011;55720;51.972;4.624;2024-01-30T12:23:33;6.18;;;1.10;;
35150;SDS011;55720;51.972;4.624;2024-01-30T12:25:59;8.48;;;1.13;;
35150;SDS011;55720;51.972;4.624;2024-01-30T12:28:25;4.75;;;0.70;;
35150;SDS011;55720;51.972;4.624;2024-01-30T12:30:50;4.57;;;0.88;;
35150;SDS011;55720;51.972;4.624;2024-01-30T12:33:15;7.65;;;0.95;;
35150;SDS011;55720;51.972;4.624;2024-01-30T12:35:41;8.02;;;0.93;;
35150;SDS011;55720;51.972;4.624;2024-01-30T12:38:10;7.40;;;0.70;;
35150;SDS011;55720;51.972;4.624;2024-01-30T12:40:35;4.45;;;0.80;;
35150;SDS011;55720;51.972;4.624;2024-01-30T12:43:00;9.23;;;2.08;;
35150;SDS011;55720;51.972;4.624;2024-01-30T12:45:26;3.90;;;1.35;;
35150;SDS011;55720;51.972;4.624;2024-01-30T12:47:51;5.50;;;1.20;;
35150;SDS011;55720;51.972;4.624;2024-01-30T12:50:16;3.90;;;1.48;;
35150;SDS011;55720;51.972;4.624;2024-01-30T12:52:42;2.00;;;0.80;;
35150;SDS011;55720;51.972;4.624;2024-01-30T12:55:08;3.35;;;0.88;;
35150;SDS011;55720;51.972;4.624;2024-01-30T12:57:33;8.70;;;1.07;;
35150;SDS011;55720;51.972;4.624;2024-01-30T12:59:58;6.35;;;1.35;;
35150;SDS011;55720;51.972;4.624;2024-01-30T13:02:24;10.95;;;1.13;;
35150;SDS011;55720;51.972;4.624;2024-01-30T13:04:49;2.85;;;1.20;;
35150;SDS011;55720;51.972;4.624;2024-01-30T13:07:14;6.90;;;1.27;;
35150;SDS011;55720;51.972;4.624;2024-01-30T13:09:39;6.43;;;1.50;;
35150;SDS011;55720;51.972;4.624;2024-01-30T13:12:05;7.15;;;1.20;;
35150;SDS011;55720;51.972;4.624;2024-01-30T13:14:30;7.53;;;1.23;;
35150;SDS011;55720;51.972;4.624;2024-01-30T13:16:56;10.23;;;1.02;;
35150;SDS011;55720;51.972;4.624;2024-01-30T13:19:21;17.38;;;1.42;;
35150;SDS011;55720;51.972;4.624;2024-01-30T13:21:46;5.63;;;1.40;;
35150;SDS011;55720;51.972;4.624;2024-01-30T13:24:12;9.55;;;1.25;;
35150;SDS011;55720;51.972;4.624;2024-01-30T13:26:38;4.78;;;1.15;;
35150;SDS011;55720;51.972;4.624;2024-01-30T13:29:03;4.90;;;1.20;;
35150;SDS011;55720;51.972;4.624;2024-01-30T13:31:28;7.72;;;1.20;;
35150;SDS011;55720;51.972;4.624;2024-01-30T13:33:54;4.25;;;1.00;;
35150;SDS011;55720;51.972;4.624;2024-01-30T13:36:19;3.50;;;0.75;;
35150;SDS011;55720;51.972;4.624;2024-01-30T13:38:45;4.85;;;0.93;;
35150;SDS011;55720;51.972;4.624;2024-01-30T13:41:10;6.70;;;1.20;;
35150;SDS011;55720;51.972;4.624;2024-01-30T13:43:35;8.27;;;1.23;;
35150;SDS011;55720;51.972;4.624;2024-01-30T13:46:00;12.53;;;1.50;;
35150;SDS011;55720;51.972;4.624;2024-01-30T13:48:26;2.90;;;1.10;;
35150;SDS011;55720;51.972;4.624;2024-01-30T13:50:51;9.15;;;1.40;;
35150;SDS011;55720;51.972;4.624;2024-01-30T13:53:16;3.65;;;1.52;;
35150;SDS011;55720;51.972;4.624;2024-01-30T13:55:41;3.95;;;1.60;;
35150;SDS011;55720;51.972;4.624;2024-01-30T13:58:07;7.03;;;1.67;;
35150;SDS011;55720;51.972;4.624;2024-01-30T14:00:32;4.05;;;1.33;;
35150;SDS011;55720;51.972;4.624;2024-01-30T14:02:58;2.97;;;1.27;;
35150;SDS011;55720;51.972;4.624;2024-01-30T14:05:24;4.25;;;1.50;;
35150;SDS011;55720;51.972;4.624;2024-01-30T14:07:49;7.85;;;1.40;;
35150;SDS011;55720;51.972;4.624;2024-01-30T14:10:15;6.82;;;1.60;;
35150;SDS011;55720;51.972;4.624;2024-01-30T14:12:41;7.45;;;2.35;;
35150;SDS011;55720;51.972;4.624;2024-01-30T14:15:07;4.28;;;2.05;;
35150;SDS011;55720;51.972;4.624;2024-01-30T14:17:33;6.30;;;1.88;;
35150;SDS011;55720;51.972;4.624;2024-01-30T14:19:58;3.75;;;1.92;;
35150;SDS011;55720;51.972;4.624;2024-01-30T14:22:23;3.72;;;2.17;;
35150;SDS011;55720;51.972;4.624;2024-01-30T14:24:49;4.13;;;1.90;;
35150;SDS011;55720;51.972;4.624;2024-01-30T14:27:15;7.07;;;2.10;;